Time;durP1;ratioP1;P1;durP2;ratioP2;P2;SDS_P1;SDS_P2;PMS_P1;PMS_P2;Temp;Humidity;BMP_temperature;BMP_pressure;BME280_temperature;BME280_humidity;BME280_pressure;Samples;Min_cycle;Max_cycle;Signal;HPM_P1;HPM_P2
2024/01/31 00:00:40;;;;;;;;;;;12.60;48.90;;;12.76;51.00;102365.66;5014683;28;19940;-37
2024/01/31 00:03:08;;;;;;;;;;;12.60;48.80;;;12.77;51.01;102382.56;5013935;28;19926;-37
2024/01/31 00:05:36;;;;;;;;;;;12.60;48.80;;;12.76;51.54;102370.69;5019651;28;20024;-37
2024/01/31 00:08:04;;;;;;;;;;;12.60;48.80;;;12.77;51.57;102375.00;5014099;28;19936;-37
2024/01/31 00:10:32;;;;;;;;;;;12.60;49.50;;;12.78;50.96;102378.44;5014008;28;20403;-36
2024/01/31 00:13:02;;;;;;;;;;;12.60;48.90;;;12.74;50.82;102377.09;5015029;28;19975;-41
2024/01/31 00:15:30;;;;;;;;;;;12.60;48.80;;;12.77;51.08;102381.66;5015177;28;19980;-37
2024/01/31 00:17:58;;;;;;;;;;;12.60;48.90;;;12.77;51.66;102387.59;5014497;28;20030;-34
2024/01/31 00:20:26;;;;;;;;;;;12.60;48.90;;;12.76;51.05;102380.75;5015926;28;19926;-34
2024/01/31 00:22:54;;;;;;;;;;;12.60;48.80;;;12.77;50.87;102377.53;5014686;28;19937;-37
2024/01/31 00:25:22;;;;;;;;;;;12.60;48.90;;;12.76;51.60;102370.69;5006553;28;19960;-37
2024/01/31 00:27:50;;;;;;;;;;;12.60;48.80;;;12.76;51.41;102374.81;5014255;28;19925;-34
2024/01/31 00:30:19;;;;;;;;;;;12.60;48.90;;;12.76;51.70;102370.69;5013902;28;20048;-35
2024/01/31 00:32:47;;;;;;;;;;;12.50;48.80;;;12.76;51.59;102370.69;5013281;28;20290;-34
2024/01/31 00:35:15;;;;;;;;;;;12.50;48.80;;;12.77;51.45;102377.53;5013791;28;20238;-35
2024/01/31 00:37:43;;;;;;;;;;;12.50;48.80;;;12.76;51.87;102380.75;5013911;28;19925;-35
2024/01/31 00:40:12;;;;;;;;;;;12.50;48.80;;;12.76;51.39;102385.78;5013962;28;19937;-35
2024/01/31 00:42:42;;;;;;;;;;;12.50;48.80;;;12.75;51.44;102383.94;5014507;28;19971;-35
2024/01/31 00:45:11;;;;;;;;;;;12.50;48.80;;;12.73;51.54;102385.31;5013376;28;19968;-35
2024/01/31 00:47:40;;;;;;;;;;;12.50;48.80;;;12.74;51.86;102386.22;5014701;28;20356;-35
2024/01/31 00:50:09;;;;;;;;;;;12.50;48.90;;;12.73;51.13;102380.28;5014099;28;19929;-35
2024/01/31 00:52:37;;;;;;;;;;;12.50;48.90;;;12.73;52.15;102390.34;5013828;28;19926;-35
2024/01/31 00:55:06;;;;;;;;;;;12.50;48.90;;;12.74;51.01;102381.19;5012773;28;20020;-35
2024/01/31 00:57:34;;;;;;;;;;;12.50;48.90;;;12.73;51.56;102380.28;5013330;28;19926;-35
2024/01/31 01:00:04;;;;;;;;;;;12.50;48.90;;;12.73;51.54;102385.31;5013507;28;19926;-35
2024/01/31 01:02:35;;;;;;;;;;;12.50;48.90;;;12.72;51.36;102375.94;5013555;28;19925;-36
2024/01/31 01:05:05;;;;;;;;;;;12.50;48.90;;;12.72;51.61;102373.41;5018203;28;19982;-35
2024/01/31 01:07:33;;;;;;;;;;;12.50;48.90;;;12.72;52.18;102373.41;5013550;28;19993;-35
2024/01/31 01:10:01;;;;;;;;;;;12.50;48.90;;;12.71;51.67;102381.63;5012911;28;19933;-35
2024/01/31 01:12:29;;;;;;;;;;;12.50;48.90;;;12.73;51.90;102375.25;5013556;28;20013;-35
2024/01/31 01:14:57;;;;;;;;;;;12.50;48.90;;;12.73;51.13;102375.25;5012702;28;20108;-35
2024/01/31 01:17:39;;;;;;;;;;;12.50;49.00;;;12.72;51.61;102378.44;5013221;28;19932;-35
2024/01/31 01:20:09;;;;;;;;;;;12.50;48.90;;;12.73;51.60;102384.41;5012709;28;20313;-35
2024/01/31 01:22:38;;;;;;;;;;;12.50;48.90;;;12.70;51.67;102374.81;5012821;28;20460;-35
2024/01/31 01:25:07;;;;;;;;;;;12.50;48.90;;;12.71;51.53;102386.66;5012481;28;19929;-35
2024/01/31 01:27:35;;;;;;;;;;;12.50;48.90;;;12.70;52.04;102377.31;5012954;28;20381;-36
2024/01/31 01:30:04;;;;;;;;;;;12.50;48.90;;;12.71;51.71;102381.63;5012808;28;19925;-35
2024/01/31 01:32:31;;;;;;;;;;;12.50;48.90;;;12.72;51.63;102378.44;5013276;28;19926;-36
2024/01/31 01:34:59;;;;;;;;;;;12.50;48.90;;;12.73;51.71;102387.81;5011742;28;19926;-36
2024/01/31 01:37:29;;;;;;;;;;;12.50;48.90;;;12.73;51.83;102384.41;5013258;28;20026;-35
2024/01/31 01:39:57;;;;;;;;;;;12.50;49.60;;;12.73;51.80;102395.38;5013214;28;20372;-35
2024/01/31 01:42:25;;;;;;;;;;;12.50;48.90;;;12.71;50.69;102386.66;5013077;28;19925;-35
2024/01/31 01:44:53;;;;;;;;;;;12.50;49.00;;;12.72;51.16;102393.53;5013771;28;20444;-36
2024/01/31 01:47:21;;;;;;;;;;;12.50;48.90;;;12.73;51.56;102389.44;5015201;28;19972;-36
2024/01/31 01:49:49;;;;;;;;;;;12.50;49.00;;;12.73;51.37;102395.38;5015692;28;20472;-37
2024/01/31 01:52:17;;;;;;;;;;;12.50;48.90;;;12.74;51.59;102397.22;5014819;28;20443;-36
2024/01/31 01:54:46;;;;;;;;;;;12.50;48.90;;;12.72;51.73;102398.56;5014107;28;19967;-36
2024/01/31 01:57:14;;;;;;;;;;;12.50;48.90;;;12.73;52.11;102404.50;5013585;28;20412;-36
2024/01/31 01:59:42;;;;;;;;;;;12.50;48.90;;;12.75;51.05;102406.59;5014094;28;20059;-36
2024/01/31 02:02:10;;;;;;;;;;;12.50;48.90;;;12.72;51.22;102408.63;5014808;28;20027;-36
2024/01/31 02:04:38;;;;;;;;;;;12.50;48.90;;;12.71;51.26;102411.81;5016707;28;20360;-35
2024/01/31 02:07:06;;;;;;;;;;;12.50;48.90;;;12.73;50.83;102420.53;5049201;22;20367;-37
2024/01/31 02:09:34;;;;;;;;;;;12.50;48.90;;;12.71;50.78;102421.88;5032593;28;20291;-37
2024/01/31 02:12:04;;;;;;;;;;;12.50;49.00;;;12.71;51.48;102431.94;5032359;28;19925;-37
2024/01/31 02:14:32;;;;;;;;;;;12.50;49.00;;;12.73;51.73;102435.63;5031134;28;19929;-37
2024/01/31 02:16:59;;;;;;;;;;;12.50;48.90;;;12.71;51.49;102436.97;5032543;28;20028;-36
2024/01/31 02:19:27;;;;;;;;;;;12.50;48.90;;;12.63;52.12;102422.38;5032902;28;20020;-36
2024/01/31 02:21:55;;;;;;;;;;;12.50;49.00;;;12.72;51.54;102441.31;5032473;28;19932;-36
2024/01/31 02:24:25;;;;;;;;;;;12.50;49.00;;;12.72;51.22;102443.84;5031276;28;20432;-35
2024/01/31 02:26:52;;;;;;;;;;;12.50;49.00;;;12.70;51.35;102442.72;5033537;28;19925;-36
2024/01/31 02:29:20;;;;;;;;;;;12.50;49.00;;;12.71;51.71;102446.16;5032248;28;19944;-36
2024/01/31 02:31:48;;;;;;;;;;;12.50;49.00;;;12.71;51.93;102447.03;5033826;28;20308;-36
2024/01/31 02:34:18;;;;;;;;;;;12.50;49.00;;;12.68;51.46;102441.56;5035805;28;19929;-36
2024/01/31 02:36:46;;;;;;;;;;;12.50;49.00;;;12.71;51.67;102451.19;5036251;28;20024;-36
2024/01/31 02:39:14;;;;;;;;;;;12.50;49.00;;;12.70;51.32;102452.78;5036020;28;20482;-36
2024/01/31 02:41:43;;;;;;;;;;;12.50;48.90;;;12.69;51.27;102455.97;5035808;28;19932;-36
2024/01/31 02:44:11;;;;;;;;;;;12.50;49.00;;;12.69;51.26;102458.50;5035337;28;20319;-36
2024/01/31 02:46:39;;;;;;;;;;;12.50;49.00;;;12.70;51.76;102460.31;5036142;28;19925;-37
2024/01/31 02:49:08;;;;;;;;;;;12.50;49.00;;;12.68;51.63;102455.75;5035538;28;19933;-37
2024/01/31 02:51:36;;;;;;;;;;;12.50;49.00;;;12.69;51.80;102457.56;5035884;28;20011;-37
2024/01/31 02:54:04;;;;;;;;;;;12.50;49.00;;;12.68;50.73;102464.19;5035012;28;19929;-36
2024/01/31 02:56:32;;;;;;;;;;;12.50;49.00;;;12.68;52.22;102461.69;5035721;28;20016;-37
2024/01/31 02:59:01;;;;;;;;;;;12.50;48.90;;;12.68;51.76;102471.75;5036700;28;20011;-36
2024/01/31 03:01:29;;;;;;;;;;;12.50;48.90;;;12.68;51.26;102466.72;5027612;28;19979;-36
2024/01/31 03:03:57;;;;;;;;;;;12.50;49.00;;;12.66;51.69;102470.59;5035410;28;20016;-37
2024/01/31 03:06:25;;;;;;;;;;;12.50;49.00;;;12.68;51.19;102461.69;5044333;28;20364;-37
2024/01/31 03:08:53;;;;;;;;;;;12.50;49.00;;;12.66;51.41;102463.03;5035164;28;20384;-37
2024/01/31 03:11:21;;;;;;;;;;;12.50;49.00;;;12.67;51.28;102462.38;5035541;28;19969;-36
2024/01/31 03:13:50;;;;;;;;;;;12.50;49.00;;;12.66;51.17;102458.00;5034933;28;20000;-37
2024/01/31 03:16:20;;;;;;;;;;;12.50;49.00;;;12.65;52.28;102451.16;5035942;28;20297;-37
2024/01/31 03:18:48;;;;;;;;;;;12.50;49.00;;;12.67;51.32;102452.31;5035499;28;19971;-37
2024/01/31 03:21:16;;;;;;;;;;;12.50;48.90;;;12.68;51.06;102451.63;5034950;28;19925;-37
2024/01/31 03:23:43;;;;;;;;;;;12.50;48.90;;;12.68;51.58;102450.72;5034873;28;19931;-37
2024/01/31 03:26:12;;;;;;;;;;;12.50;48.90;;;12.67;51.70;102448.88;5035044;28;20028;-37
2024/01/31 03:28:41;;;;;;;;;;;12.50;49.00;;;12.68;51.83;102461.69;5035354;28;19925;-36
2024/01/31 03:31:09;;;;;;;;;;;12.50;49.00;;;12.63;51.17;102452.53;5034882;28;19987;-36
2024/01/31 03:33:38;;;;;;;;;;;12.50;49.00;;;12.67;51.21;102463.97;5034367;28;19976;-36
2024/01/31 03:36:10;;;;;;;;;;;12.50;49.00;;;12.67;51.70;102463.97;5034996;28;20003;-36
2024/01/31 03:38:38;;;;;;;;;;;12.50;49.00;;;12.66;51.23;102465.56;5034868;28;19925;-37
2024/01/31 03:41:06;;;;;;;;;;;12.50;48.90;;;12.66;51.62;102468.06;5034933;28;19931;-36
2024/01/31 03:43:34;;;;;;;;;;;12.50;49.00;;;12.67;51.76;102464.88;5033010;28;19933;-36
2024/01/31 03:46:05;;;;;;;;;;;12.50;49.00;;;12.60;51.57;102462.13;5034414;28;19936;-36
2024/01/31 03:48:33;;;;;;;;;;;12.50;49.00;;;12.67;51.00;102464.88;5027345;28;19929;-36
2024/01/31 03:51:02;;;;;;;;;;;12.50;49.00;;;12.67;52.01;102467.41;5035058;28;20262;-36
2024/01/31 03:53:30;;;;;;;;;;;12.50;48.90;;;12.66;51.84;102468.06;5034109;28;19925;-36
2024/01/31 03:55:58;;;;;;;;;;;12.50;48.90;;;12.66;51.14;102463.03;5034812;28;20359;-36
2024/01/31 03:58:26;;;;;;;;;;;12.50;48.90;;;12.65;51.50;102466.25;5034690;28;19933;-37
2024/01/31 04:00:54;;;;;;;;;;;12.50;48.90;;;12.67;51.76;102469.91;5034417;28;19937;-36
2024/01/31 04:03:22;;;;;;;;;;;12.50;48.90;;;12.67;51.57;102459.84;5033887;28;19986;-36
2024/01/31 04:05:50;;;;;;;;;;;12.50;48.90;;;12.66;51.24;102455.50;5037436;28;19946;-37
2024/01/31 04:08:19;;;;;;;;;;;12.50;48.90;;;12.66;51.30;102447.97;5036483;28;19979;-35
2024/01/31 04:10:47;;;;;;;;;;;12.50;48.90;;;12.66;51.53;102447.97;5034318;28;20044;-37
2024/01/31 04:13:15;;;;;;;;;;;12.50;48.90;;;12.66;51.03;102440.41;5033321;28;19925;-39
2024/01/31 04:15:43;;;;;;;;;;;12.50;48.90;;;12.66;51.55;102431.94;5034255;28;19960;-36
2024/01/31 04:18:11;;;;;;;;;;;12.50;48.90;;;12.67;51.69;102433.78;5034330;28;19924;-36
2024/01/31 04:20:39;;;;;;;;;;;12.50;48.90;;;12.67;51.40;102428.75;5034347;28;20000;-36
2024/01/31 04:23:07;;;;;;;;;;;12.50;48.90;;;12.63;52.02;102422.38;5033272;28;20020;-36
2024/01/31 04:25:36;;;;;;;;;;;12.50;48.90;;;12.67;51.49;102424.63;5026058;28;20004;-36
2024/01/31 04:28:05;;;;;;;;;;;12.50;48.90;;;12.64;51.55;102424.19;5033915;28;20293;-36
2024/01/31 04:30:33;;;;;;;;;;;12.50;48.90;;;12.65;51.60;102420.97;5033621;28;20530;-36
2024/01/31 04:33:01;;;;;;;;;;;12.50;48.90;;;12.64;51.29;102419.16;5033612;28;20373;-36
2024/01/31 04:35:29;;;;;;;;;;;12.50;48.90;;;12.64;51.07;102429.22;5034251;28;19925;-37
2024/01/31 04:37:57;;;;;;;;;;;12.50;48.90;;;12.64;51.70;102429.22;5033711;28;19978;-36
2024/01/31 04:40:25;;;;;;;;;;;12.50;48.90;;;12.62;51.54;102430.59;5033436;28;19925;-36
2024/01/31 04:42:54;;;;;;;;;;;12.40;48.90;;;12.63;51.52;102441.56;5035842;28;19925;-37
2024/01/31 04:45:22;;;;;;;;;;;12.40;48.80;;;12.54;51.99;102426.00;5043465;28;19925;-36
2024/01/31 04:47:50;;;;;;;;;;;12.50;48.90;;;12.64;51.33;102454.38;5044769;28;19932;-35
2024/01/31 04:50:18;;;;;;;;;;;12.50;48.90;;;12.63;51.76;102455.06;5043961;28;19932;-34
2024/01/31 04:52:46;;;;;;;;;;;12.40;48.80;;;12.65;51.81;102451.16;5043268;28;19994;-36
2024/01/31 04:55:14;;;;;;;;;;;12.40;48.90;;;12.63;52.20;102452.53;5034487;28;20272;-36
2024/01/31 04:57:42;;;;;;;;;;;12.40;48.80;;;12.62;51.36;102455.75;5034519;28;19991;-35
2024/01/31 05:00:16;;;;;;;;;;;12.40;48.80;;;12.63;52.15;102454.13;5037334;28;20016;-36
2024/01/31 05:02:44;;;;;;;;;;;12.40;48.90;;;12.64;50.85;102441.81;5039880;28;19929;-33
2024/01/31 05:05:12;;;;;;;;;;;12.40;48.90;;;12.63;51.76;102442.47;5033299;28;20402;-36
2024/01/31 05:07:40;;;;;;;;;;;12.40;48.80;;;12.60;50.92;102436.97;5039383;28;20396;-36
2024/01/31 05:10:08;;;;;;;;;;;12.50;48.90;;;12.62;51.05;102450.72;5034509;28;19972;-36
2024/01/31 05:12:37;;;;;;;;;;;12.40;48.80;;;12.63;51.17;102446.59;5027668;28;19925;-35
2024/01/31 05:15:06;;;;;;;;;;;12.40;48.80;;;12.62;51.35;102453.22;5039622;28;20108;-35
2024/01/31 05:17:35;;;;;;;;;;;12.40;48.90;;;12.63;50.79;102455.06;5035047;28;19935;-37
2024/01/31 05:20:04;;;;;;;;;;;12.40;48.80;;;12.63;51.76;102452.53;5032918;28;20312;-36
2024/01/31 05:22:32;;;;;;;;;;;12.40;48.80;;;12.62;51.33;102450.72;5032816;28;19968;-37
2024/01/31 05:25:00;;;;;;;;;;;12.40;48.80;;;12.62;51.21;102445.69;5032294;28;19979;-37
2024/01/31 05:27:28;;;;;;;;;;;12.40;48.90;;;12.64;51.17;102454.38;5033032;28;20019;-36
2024/01/31 05:29:56;;;;;;;;;;;12.40;48.90;;;12.64;51.60;102450.94;5032517;28;20023;-37
2024/01/31 05:32:24;;;;;;;;;;;12.40;48.80;;;12.63;51.05;102445.00;5032223;28;19933;-36
2024/01/31 05:34:53;;;;;;;;;;;12.40;48.90;;;12.63;51.28;102450.03;5031706;28;19925;-36
2024/01/31 05:37:21;;;;;;;;;;;12.40;48.90;;;12.64;51.31;102449.34;5032494;28;19979;-36
2024/01/31 05:39:49;;;;;;;;;;;12.40;48.80;;;12.63;51.57;102457.56;5032310;28;19925;-37
2024/01/31 05:42:17;;;;;;;;;;;12.40;48.90;;;12.62;52.20;102460.78;5032072;28;20456;-37
2024/01/31 05:44:45;;;;;;;;;;;12.40;48.90;;;12.63;51.62;102461.69;5031633;28;20008;-37
2024/01/31 05:47:13;;;;;;;;;;;12.40;48.90;;;12.60;50.99;102457.09;5031897;28;19925;-36
2024/01/31 05:49:41;;;;;;;;;;;12.40;48.90;;;12.60;51.29;102451.16;5032434;28;20024;-35
2024/01/31 05:52:11;;;;;;;;;;;12.40;48.80;;;12.63;51.16;102452.53;5032575;28;19925;-35
2024/01/31 05:54:39;;;;;;;;;;;12.40;48.90;;;12.62;51.50;102450.72;5023439;28;19934;-34
2024/01/31 05:57:07;;;;;;;;;;;12.40;48.80;;;12.61;51.27;102442.94;5032068;28;19979;-33
2024/01/31 05:59:40;;;;;;;;;;;12.40;48.90;;;12.64;51.37;102459.41;5031803;28;19972;-35
2024/01/31 06:02:10;;;;;;;;;;;12.40;48.90;;;12.63;51.84;102456.66;5031859;28;20358;-35
2024/01/31 06:04:38;;;;;;;;;;;12.40;48.90;;;12.62;51.81;102459.84;5031677;28;19925;-34
2024/01/31 06:07:06;;;;;;;;;;;12.40;48.90;;;12.63;51.52;102452.53;5042540;28;20016;-35
2024/01/31 06:09:35;;;;;;;;;;;12.40;49.50;;;12.63;50.83;102452.53;5032491;28;19936;-34
2024/01/31 06:12:03;;;;;;;;;;;12.40;48.90;;;12.63;51.83;102455.06;5032368;28;19926;-36
2024/01/31 06:14:31;;;;;;;;;;;12.40;48.90;;;12.62;51.91;102454.81;5031500;28;20024;-34
2024/01/31 06:16:59;;;;;;;;;;;12.40;48.90;;;12.62;51.65;102460.78;5032078;28;19929;-36
2024/01/31 06:19:27;;;;;;;;;;;12.40;48.90;;;12.62;52.19;102460.78;5031884;28;19937;-34
2024/01/31 06:21:55;;;;;;;;;;;12.40;48.80;;;12.59;51.69;102455.25;5032226;28;19933;-35
2024/01/31 06:24:24;;;;;;;;;;;12.40;48.90;;;12.62;51.52;102465.81;5031084;28;20035;-34
2024/01/31 06:26:53;;;;;;;;;;;12.40;48.90;;;12.62;51.90;102470.81;5032430;28;20016;-35
2024/01/31 06:29:21;;;;;;;;;;;12.40;48.80;;;12.62;52.13;102468.31;5031990;28;20032;-36
2024/01/31 06:31:51;;;;;;;;;;;12.40;48.90;;;12.61;51.38;102466.47;5031858;28;19976;-35
2024/01/31 06:34:20;;;;;;;;;;;12.40;48.90;;;12.61;51.13;102463.03;5031078;28;19975;-35
2024/01/31 06:36:48;;;;;;;;;;;12.40;49.50;;;12.60;51.93;102462.13;5031691;28;19925;-34
2024/01/31 06:39:16;;;;;;;;;;;12.40;48.90;;;12.60;51.64;102466.25;5031866;28;19925;-35
2024/01/31 06:41:44;;;;;;;;;;;12.40;48.90;;;12.60;51.73;102467.16;5032397;28;20362;-35
2024/01/31 06:44:13;;;;;;;;;;;12.40;48.90;;;12.60;51.28;102467.16;5031553;28;20296;-35
2024/01/31 06:46:47;;;;;;;;;;;12.40;48.90;;;12.59;51.61;102465.31;5025486;28;20431;-35
2024/01/31 06:49:15;;;;;;;;;;;12.40;48.90;;;12.60;51.65;102461.22;5034367;28;19933;-36
2024/01/31 06:51:43;;;;;;;;;;;12.40;48.90;;;12.58;51.36;102458.50;5024013;28;19944;-34
2024/01/31 06:54:12;;;;;;;;;;;12.40;48.90;;;12.59;51.03;102459.38;5031274;28;19925;-35
2024/01/31 06:56:40;;;;;;;;;;;12.40;48.90;;;12.60;51.65;102452.06;5031813;28;20274;-36
2024/01/31 06:59:08;;;;;;;;;;;12.40;48.90;;;12.59;51.04;102460.28;5031964;28;20028;-36
2024/01/31 07:01:37;;;;;;;;;;;12.40;48.90;;;12.57;50.95;102448.19;5031855;28;19944;-35
2024/01/31 07:04:06;;;;;;;;;;;12.40;48.90;;;12.59;51.40;102455.25;5031909;28;19929;-36
2024/01/31 07:06:34;;;;;;;;;;;12.40;48.80;;;12.59;51.80;102455.25;5039812;28;20055;-36
2024/01/31 07:09:02;;;;;;;;;;;12.40;48.90;;;12.59;51.31;102450.22;5043246;28;19932;-36
2024/01/31 07:11:30;;;;;;;;;;;12.40;48.90;;;12.59;51.32;102455.25;5037914;28;19975;-37
2024/01/31 07:13:58;;;;;;;;;;;12.40;48.90;;;12.57;51.94;102461.69;5037805;28;19961;-35
2024/01/31 07:16:26;;;;;;;;;;;12.40;48.90;;;12.60;52.05;102463.72;5042409;28;19996;-34
2024/01/31 07:18:55;;;;;;;;;;;12.40;48.90;;;12.60;51.39;102469.66;5043253;28;19975;-33
2024/01/31 07:21:24;;;;;;;;;;;12.40;48.90;;;12.56;51.15;102464.88;5042829;28;19925;-35
2024/01/31 07:23:52;;;;;;;;;;;12.40;48.90;;;12.58;51.21;102463.53;5034966;28;19925;-35
2024/01/31 07:26:24;;;;;;;;;;;12.40;48.80;;;12.60;51.61;102471.25;5035009;28;19925;-34
2024/01/31 07:28:52;;;;;;;;;;;12.40;48.90;;;12.57;51.38;102461.69;5035153;28;19947;-35
2024/01/31 07:31:20;;;;;;;;;;;12.40;48.90;;;12.60;50.81;102467.16;5035782;28;20027;-36
2024/01/31 07:33:48;;;;;;;;;;;12.40;48.80;;;12.61;51.52;102474.03;5034960;28;19947;-37
2024/01/31 07:36:17;;;;;;;;;;;12.40;48.80;;;12.60;51.40;102481.31;5035277;28;19929;-36
2024/01/31 07:38:46;;;;;;;;;;;12.40;48.80;;;12.59;51.69;102475.38;5035524;28;20366;-35
2024/01/31 07:41:14;;;;;;;;;;;12.40;48.80;;;12.61;51.24;102491.63;5035178;28;19932;-35
2024/01/31 07:43:42;;;;;;;;;;;12.40;48.80;;;12.61;51.26;102488.19;5033779;28;19925;-35
2024/01/31 07:46:11;;;;;;;;;;;12.40;48.80;;;12.61;51.57;102498.25;5034954;28;19925;-35
2024/01/31 07:48:39;;;;;;;;;;;12.40;48.80;;;12.60;51.59;102497.34;5034671;28;19979;-35
2024/01/31 07:51:07;;;;;;;;;;;12.40;48.80;;;12.56;51.31;102500.09;5034866;28;19931;-33
2024/01/31 07:53:37;;;;;;;;;;;12.40;48.80;;;12.61;51.53;102506.72;5034340;28;20032;-35
2024/01/31 07:56:05;;;;;;;;;;;12.40;48.80;;;12.60;51.62;102497.34;5034922;28;20472;-35
2024/01/31 07:58:33;;;;;;;;;;;12.40;49.40;;;12.61;51.54;102498.25;5035865;28;20404;-34
2024/01/31 08:01:02;;;;;;;;;;;12.40;48.80;;;12.61;51.98;102508.31;5035189;28;20012;-34
2024/01/31 08:03:30;;;;;;;;;;;12.40;48.80;;;12.61;51.76;102504.19;5034037;28;19925;-35
2024/01/31 08:05:59;;;;;;;;;;;12.40;48.80;;;12.60;51.11;102507.41;5038997;28;20011;-34
2024/01/31 08:08:28;;;;;;;;;;;12.40;48.80;;;12.60;51.64;102502.38;5044527;28;19925;-34
2024/01/31 08:10:58;;;;;;;;;;;12.40;48.80;;;12.56;50.96;102494.13;5034825;28;19925;-32
2024/01/31 08:13:25;;;;;;;;;;;12.40;48.80;;;12.60;51.48;102502.38;5034477;28;19991;-34
2024/01/31 08:15:53;;;;;;;;;;;12.40;48.80;;;12.59;51.64;102510.59;5034535;28;19933;-33
2024/01/31 08:18:21;;;;;;;;;;;12.40;48.80;;;12.59;51.26;102505.56;5035230;28;19957;-33
2024/01/31 08:20:49;;;;;;;;;;;12.40;48.80;;;12.59;51.81;102500.53;5035336;28;19925;-32
2024/01/31 08:23:17;;;;;;;;;;;12.40;48.80;;;12.58;51.22;102497.81;5034536;28;20019;-33
2024/01/31 08:25:45;;;;;;;;;;;12.40;48.80;;;12.59;51.57;102508.06;5039580;28;19929;-33
2024/01/31 08:28:15;;;;;;;;;;;12.40;48.80;;;12.60;50.66;102512.41;5034577;28;20369;-31
2024/01/31 08:30:43;;;;;;;;;;;12.40;48.80;;;12.60;51.09;102512.41;5033809;28;19925;-32
2024/01/31 08:33:11;;;;;;;;;;;12.40;48.80;;;12.59;51.13;102510.59;5033435;28;20400;-34
2024/01/31 08:35:39;;;;;;;;;;;12.40;48.80;;;12.60;51.19;102512.41;5033930;28;20278;-35
2024/01/31 08:38:07;;;;;;;;;;;12.40;48.80;;;12.60;51.25;102521.56;5034202;28;19933;-32
2024/01/31 08:40:35;;;;;;;;;;;12.40;48.80;;;12.60;51.33;102527.50;5033706;28;19925;-32
2024/01/31 08:43:03;;;;;;;;;;;12.40;48.80;;;12.57;51.81;102537.13;5033209;28;19980;-31
2024/01/31 08:45:33;;;;;;;;;;;12.40;48.80;;;12.58;51.19;102544.00;5033647;28;19926;-34
2024/01/31 08:48:00;;;;;;;;;;;12.40;48.90;;;12.60;51.75;102539.16;5033350;28;19925;-35
2024/01/31 08:50:28;;;;;;;;;;;12.40;48.80;;;12.59;51.55;102535.72;5033473;28;20380;-35
2024/01/31 08:52:57;;;;;;;;;;;12.40;48.80;;;12.59;51.22;102540.75;5033004;28;19944;-33
2024/01/31 08:55:25;;;;;;;;;;;12.40;48.80;;;12.59;51.68;102544.88;5033312;28;20439;-35
2024/01/31 08:57:53;;;;;;;;;;;12.40;48.80;;;12.58;51.23;102553.13;5033633;28;19965;-34
2024/01/31 09:00:21;;;;;;;;;;;12.40;48.90;;;12.57;51.30;102546.25;5033345;28;19925;-37
2024/01/31 09:02:50;;;;;;;;;;;12.40;48.80;;;12.57;51.55;102552.22;5024442;28;20365;-35
2024/01/31 09:05:18;;;;;;;;;;;12.40;48.90;;;12.49;51.89;102537.56;5033658;28;19931;-33
2024/01/31 09:07:46;;;;;;;;;;;12.40;48.90;;;12.59;51.34;102560.88;5041542;28;19929;-32
2024/01/31 09:10:16;;;;;;;;;;;12.40;48.90;;;12.57;50.98;102552.22;5033667;28;19925;-31
2024/01/31 09:12:44;;;;;;;;;;;12.40;48.90;;;12.58;51.54;102554.06;5033304;28;19937;-33
2024/01/31 09:15:13;;;;;;;;;;;12.40;48.80;;;12.58;51.25;102551.53;5033534;28;19925;-33
2024/01/31 09:17:40;;;;;;;;;;;12.40;48.80;;;12.58;51.54;102558.16;5034443;28;19951;-30
2024/01/31 09:20:11;;;;;;;;;;;12.40;48.80;;;12.57;51.41;102562.28;5041799;28;20308;-31
2024/01/31 09:22:40;;;;;;;;;;;12.40;48.80;;;12.57;51.25;102559.75;5048896;28;19925;-34
2024/01/31 09:25:10;;;;;;;;;;;12.40;48.80;;;12.56;51.64;102560.44;5037907;28;19929;-34
2024/01/31 09:27:38;;;;;;;;;;;12.40;48.80;;;12.57;51.13;102562.28;5033873;28;20064;-31
2024/01/31 09:30:08;;;;;;;;;;;12.40;48.90;;;12.59;51.61;102575.97;5032786;28;19929;-33
2024/01/31 09:32:36;;;;;;;;;;;12.40;48.90;;;12.58;51.41;102579.19;5032583;28;19961;-32
2024/01/31 09:35:04;;;;;;;;;;;12.40;48.80;;;12.59;51.30;102580.09;5032320;28;19971;-32
2024/01/31 09:37:34;;;;;;;;;;;12.40;48.80;;;12.60;51.78;102581.91;5032615;28;19929;-33
2024/01/31 09:40:02;;;;;;;;;;;12.40;48.80;;;12.59;51.10;102581.00;5032805;28;19964;-32
2024/01/31 09:42:30;;;;;;;;;;;12.40;48.80;;;12.59;51.27;102575.97;5031605;28;20339;-32
2024/01/31 09:44:58;;;;;;;;;;;12.40;48.80;;;12.31;51.28;102507.09;5031808;28;20363;-33
2024/01/31 09:47:27;;;;;;;;;;;12.40;48.80;;;12.61;51.78;102553.59;5032691;28;20039;-34
2024/01/31 09:49:56;;;;;;;;;;;12.40;48.80;;;12.59;50.93;102545.78;5032528;28;19965;-32
2024/01/31 09:52:27;;;;;;;;;;;12.40;48.80;;;12.59;50.82;102540.75;5032469;28;19925;-34
2024/01/31 09:54:58;;;;;;;;;;;12.40;48.80;;;12.60;51.48;102545.13;5024465;28;20363;-33
2024/01/31 09:57:27;;;;;;;;;;;12.40;48.80;;;12.52;51.89;102527.94;5032379;28;20016;-39
2024/01/31 09:59:56;;;;;;;;;;;12.40;48.80;;;12.61;50.93;102544.44;5032585;28;20011;-33
2024/01/31 10:02:24;;;;;;;;;;;12.40;48.80;;;12.60;51.47;102537.56;5032792;28;19947;-36
2024/01/31 10:04:52;;;;;;;;;;;12.40;49.00;;;12.58;51.62;102523.88;5024050;28;20389;-36
2024/01/31 10:07:23;;;;;;;;;;;12.40;48.80;;;12.53;50.85;102519.72;5033110;28;19925;-36
2024/01/31 10:09:54;;;;;;;;;;;12.40;48.80;;;12.59;51.46;102535.72;5032560;28;19933;-33
2024/01/31 10:12:23;;;;;;;;;;;12.40;48.80;;;12.61;51.13;102539.41;5032534;28;19931;-35
2024/01/31 10:14:52;;;;;;;;;;;12.40;48.80;;;12.60;50.88;102536.66;5032191;28;20000;-33
2024/01/31 10:17:21;;;;;;;;;;;12.40;48.80;;;12.59;50.89;102535.72;5033914;28;20351;-36
2024/01/31 10:19:49;;;;;;;;;;;12.40;48.80;;;12.58;50.86;102533.94;5032401;28;19979;-33
2024/01/31 10:22:17;;;;;;;;;;;12.40;48.80;;;12.55;51.06;102528.41;5032080;28;19936;-32
2024/01/31 10:24:46;;;;;;;;;;;12.40;48.80;;;12.59;51.68;102532.31;5031903;28;19925;-33
2024/01/31 10:27:14;;;;;;;;;;;12.40;48.80;;;12.56;51.92;102525.22;5032321;28;19925;-35
2024/01/31 10:29:44;;;;;;;;;;;12.40;48.80;;;12.57;51.63;102531.19;5032195;28;20047;-34
2024/01/31 10:32:12;;;;;;;;;;;12.40;48.80;;;12.51;50.91;102508.53;5032343;28;20038;-32
2024/01/31 10:34:40;;;;;;;;;;;12.40;48.80;;;12.57;51.04;102511.97;5030995;28;19932;-33
2024/01/31 10:37:28;;;;;;;;;;;12.40;48.80;;;12.57;51.44;102522.03;5032104;28;19929;-32
2024/01/31 10:40:16;;;;;;;;;;;12.40;48.80;;;12.52;50.75;102502.78;5033296;28;19925;-34
2024/01/31 10:42:44;;;;;;;;;;;12.40;48.80;;;12.56;51.78;102507.63;5031703;28;19939;-33
2024/01/31 10:45:13;;;;;;;;;;;12.40;49.40;;;12.56;51.64;102504.19;5032519;28;20020;-33
2024/01/31 10:47:42;;;;;;;;;;;12.40;48.70;;;12.56;51.81;102500.09;5032081;28;19932;-35
2024/01/31 10:50:11;;;;;;;;;;;12.40;48.80;;;12.55;50.62;102505.78;5032207;28;20015;-33
2024/01/31 10:52:38;;;;;;;;;;;12.40;48.80;;;12.58;50.77;102493.69;5031991;28;19960;-36
2024/01/31 10:55:08;;;;;;;;;;;12.40;48.80;;;12.55;51.04;102483.16;5035364;28;19929;-35
2024/01/31 10:57:37;;;;;;;;;;;12.40;48.80;;;12.56;51.98;102485.00;5035445;28;20389;-33
2024/01/31 11:00:09;;;;;;;;;;;12.40;48.80;;;12.56;52.02;102474.94;5035658;28;19973;-35
2024/01/31 11:02:39;;;;;;;;;;;12.40;48.80;;;12.56;51.61;102469.00;5035154;28;19948;-33
2024/01/31 11:05:07;;;;;;;;;;;12.40;48.80;;;12.55;51.51;102473.09;5035046;28;19925;-35
2024/01/31 11:07:44;;;;;;;;;;;12.40;48.80;;;12.56;52.01;102464.88;5035573;28;19939;-36
2024/01/31 11:10:12;;;;;;;;;;;12.40;48.70;;;12.56;51.19;102463.97;5035587;28;20015;-33
2024/01/31 11:12:40;;;;;;;;;;;12.40;48.70;;;12.58;51.16;102457.56;5035288;28;19925;-33
2024/01/31 11:15:09;;;;;;;;;;;12.40;48.70;;;12.55;51.07;102442.91;5034590;28;19932;-33